createdAt,value
2019-01-13T00:02:00.961Z,6.20
2019-01-13T00:04:33.134Z,6.20
2019-01-13T00:07:03.481Z,6.20
2019-01-13T00:09:36.178Z,6.10
2019-01-13T00:12:07.066Z,6.10
2019-01-13T00:14:37.772Z,6.10
2019-01-13T00:17:08.404Z,6.10
2019-01-13T00:19:38.993Z,6.10
2019-01-13T00:22:10.034Z,6.10
2019-01-13T00:24:43.382Z,6.10
2019-01-13T00:27:13.467Z,6.00
2019-01-13T00:29:44.020Z,6.00
2019-01-13T00:32:14.429Z,6.00
2019-01-13T00:34:44.785Z,6.10
2019-01-13T00:37:15.626Z,6.10
2019-01-13T00:39:45.735Z,6.10
2019-01-13T00:42:17.348Z,6.10
2019-01-13T00:44:47.939Z,6.10
2019-01-13T00:47:18.075Z,6.10
2019-01-13T00:49:48.384Z,6.10
2019-01-13T00:52:18.532Z,6.10
2019-01-13T00:54:48.625Z,6.00
2019-01-13T00:57:19.141Z,6.10
2019-01-13T00:59:49.588Z,6.10
2019-01-13T01:02:20.000Z,6.20
2019-01-13T01:04:50.085Z,6.20
2019-01-13T01:07:21.263Z,6.20
2019-01-13T01:09:52.157Z,6.10
2019-01-13T01:12:22.626Z,6.20
2019-01-13T01:14:52.708Z,6.20
2019-01-13T01:17:23.308Z,6.20
2019-01-13T01:19:53.694Z,6.20
2019-01-13T01:22:24.016Z,6.10
2019-01-13T01:24:56.722Z,6.10
2019-01-13T01:27:27.071Z,6.20
2019-01-13T01:29:57.412Z,6.10
2019-01-13T01:32:27.774Z,6.10
2019-01-13T01:34:58.129Z,6.10
2019-01-13T01:37:28.216Z,6.20
2019-01-13T01:39:59.317Z,6.10
2019-01-13T01:42:29.712Z,6.10
2019-01-13T01:45:00.542Z,6.10
2019-01-13T01:47:30.902Z,6.10
2019-01-13T01:50:01.481Z,6.10
2019-01-13T01:52:32.067Z,6.10
2019-01-13T01:55:02.265Z,6.20
2019-01-13T01:57:32.998Z,6.10
2019-01-13T02:00:04.261Z,6.10
2019-01-13T02:02:35.473Z,6.10
2019-01-13T02:05:05.991Z,6.10
2019-01-13T02:07:36.291Z,6.10
2019-01-13T02:10:09.219Z,6.10
2019-01-13T02:12:39.317Z,6.00
2019-01-13T02:15:12.202Z,6.10
2019-01-13T02:17:42.576Z,6.10
2019-01-13T02:20:14.813Z,6.10
2019-01-13T02:22:45.021Z,6.10
2019-01-13T02:25:17.006Z,6.10
2019-01-13T02:27:47.427Z,5.90
2019-01-13T02:30:20.147Z,6.00
2019-01-13T02:32:50.970Z,6.00
2019-01-13T02:35:21.646Z,6.00
2019-01-13T02:37:52.195Z,6.00
2019-01-13T02:40:22.947Z,6.00
2019-01-13T02:42:54.369Z,5.90
2019-01-13T02:45:28.536Z,5.80
2019-01-13T02:47:59.342Z,5.70
2019-01-13T02:50:30.088Z,5.70
2019-01-13T02:53:00.825Z,5.70
2019-01-13T02:55:31.168Z,5.70
2019-01-13T02:58:01.604Z,5.70
2019-01-13T03:00:31.964Z,5.80
2019-01-13T03:03:02.364Z,5.90
2019-01-13T03:05:32.797Z,5.90
2019-01-13T03:08:03.121Z,5.80
2019-01-13T03:10:33.433Z,5.90
2019-01-13T03:13:04.329Z,5.90
2019-01-13T03:15:34.684Z,5.90
2019-01-13T03:18:05.108Z,6.00
2019-01-13T03:20:35.576Z,5.90
2019-01-13T03:23:06.554Z,5.90
2019-01-13T03:25:36.885Z,5.90
2019-01-13T03:28:07.101Z,5.90
2019-01-13T03:30:37.204Z,5.90
2019-01-13T03:33:07.541Z,5.90
2019-01-13T03:35:38.181Z,5.90
2019-01-13T03:38:08.273Z,5.90
2019-01-13T03:40:38.900Z,5.90
2019-01-13T03:43:09.381Z,5.90
2019-01-13T03:45:39.953Z,5.90
2019-01-13T03:48:10.579Z,6.00
2019-01-13T03:50:40.931Z,6.00
2019-01-13T03:53:11.078Z,6.00
2019-01-13T03:55:41.357Z,6.00
2019-01-13T03:58:11.937Z,6.00
2019-01-13T04:00:42.951Z,6.00
2019-01-13T04:03:13.052Z,6.10
2019-01-13T04:05:43.521Z,6.10
2019-01-13T04:08:14.870Z,6.00
2019-01-13T04:10:45.020Z,6.00
2019-01-13T04:13:15.600Z,6.00
2019-01-13T04:15:49.332Z,5.90
2019-01-13T04:18:20.154Z,5.90
2019-01-13T04:20:50.504Z,5.90
2019-01-13T04:23:20.819Z,5.80
2019-01-13T04:25:51.442Z,5.80
2019-01-13T04:28:22.220Z,5.80
2019-01-13T04:30:52.441Z,5.80
2019-01-13T04:33:22.973Z,5.80
2019-01-13T04:35:53.414Z,5.90
2019-01-13T04:38:23.613Z,5.90
2019-01-13T04:40:53.702Z,5.90
2019-01-13T04:43:23.808Z,5.90
2019-01-13T04:45:54.138Z,5.90
2019-01-13T04:48:24.265Z,5.80
2019-01-13T04:50:54.633Z,5.80
2019-01-13T04:53:26.342Z,5.80
2019-01-13T04:55:56.919Z,5.90
2019-01-13T04:58:27.524Z,5.80
2019-01-13T05:00:58.284Z,5.80
2019-01-13T05:03:28.649Z,5.70
2019-01-13T05:05:59.056Z,5.80
2019-01-13T05:08:29.495Z,5.80
2019-01-13T05:10:59.802Z,5.80
2019-01-13T05:13:30.316Z,5.80
2019-01-13T05:16:00.756Z,5.70
2019-01-13T05:18:31.394Z,5.80
2019-01-13T05:21:01.718Z,5.80
2019-01-13T05:23:32.126Z,5.80
2019-01-13T05:26:02.425Z,5.80
2019-01-13T05:28:34.058Z,5.80
2019-01-13T05:31:04.162Z,5.80
2019-01-13T05:33:34.289Z,5.80
2019-01-13T05:36:04.797Z,5.80
2019-01-13T05:38:34.965Z,5.80
2019-01-13T05:41:05.041Z,5.80
2019-01-13T05:43:35.413Z,5.80
2019-01-13T05:46:05.778Z,5.80
2019-01-13T05:48:37.297Z,5.80
2019-01-13T05:51:07.863Z,5.80
2019-01-13T05:53:38.133Z,5.70
2019-01-13T05:56:08.291Z,5.80
2019-01-13T05:58:39.227Z,5.80
2019-01-13T06:01:09.318Z,5.90
2019-01-13T06:03:40.672Z,5.90
2019-01-13T06:06:11.469Z,5.90
2019-01-13T06:08:41.617Z,5.90
2019-01-13T06:11:11.693Z,5.90
2019-01-13T06:13:42.153Z,5.90
2019-01-13T06:16:12.433Z,5.90
2019-01-13T06:18:43.081Z,6.00
2019-01-13T06:21:13.393Z,6.00
2019-01-13T06:23:43.867Z,6.00
2019-01-13T06:26:14.673Z,6.10
2019-01-13T06:28:45.232Z,6.10
2019-01-13T06:31:15.375Z,6.10
2019-01-13T06:33:45.754Z,6.10
2019-01-13T06:36:16.332Z,6.00
2019-01-13T06:38:46.703Z,6.00
2019-01-13T06:41:17.086Z,6.00
2019-01-13T06:43:47.425Z,6.10
2019-01-13T06:46:19.249Z,6.00
2019-01-13T06:48:49.834Z,6.00
2019-01-13T06:51:19.952Z,6.00
2019-01-13T06:53:50.582Z,6.00
2019-01-13T06:56:20.627Z,6.10
2019-01-13T06:58:50.976Z,6.00
2019-01-13T07:01:21.344Z,6.00
2019-01-13T07:03:54.010Z,6.00
2019-01-13T07:06:24.178Z,6.00
2019-01-13T07:08:54.757Z,6.00
2019-01-13T07:11:25.126Z,6.10
2019-01-13T07:13:55.678Z,6.10
2019-01-13T07:16:25.739Z,6.10
2019-01-13T07:18:56.965Z,6.00
2019-01-13T07:21:27.389Z,5.90
2019-01-13T07:23:58.060Z,5.90
2019-01-13T07:26:28.382Z,5.90
2019-01-13T07:28:58.914Z,5.90
2019-01-13T07:31:29.260Z,5.90
2019-01-13T07:33:59.660Z,5.90
2019-01-13T07:36:30.230Z,6.00
2019-01-13T07:39:01.590Z,5.90
2019-01-13T07:41:33.160Z,6.00
2019-01-13T07:44:04.477Z,6.10
2019-01-13T07:46:34.899Z,6.00
2019-01-13T07:49:05.109Z,6.00
2019-01-13T07:51:35.728Z,6.00
2019-01-13T07:54:06.072Z,6.00
2019-01-13T07:56:37.756Z,6.20
2019-01-13T07:59:08.495Z,6.20
2019-01-13T08:01:40.413Z,6.20
2019-01-13T08:04:12.088Z,6.10
2019-01-13T08:06:42.540Z,6.10
2019-01-13T08:09:13.035Z,6.20
2019-01-13T08:11:43.966Z,6.20
2019-01-13T08:14:14.491Z,6.10
2019-01-13T08:16:44.656Z,6.10
2019-01-13T08:19:15.260Z,6.20
2019-01-13T08:21:45.580Z,6.30
2019-01-13T08:24:16.137Z,6.30
2019-01-13T08:26:47.468Z,6.20
2019-01-13T08:29:17.906Z,6.20
2019-01-13T08:31:48.140Z,6.20
2019-01-13T08:34:18.518Z,6.20
2019-01-13T08:36:48.759Z,6.30
2019-01-13T08:39:19.539Z,6.30
2019-01-13T08:41:50.013Z,6.40
2019-01-13T08:44:20.732Z,6.40
2019-01-13T08:46:51.454Z,6.40
2019-01-13T08:49:21.952Z,6.40
2019-01-13T08:51:52.442Z,6.30
2019-01-13T08:54:22.610Z,6.30
2019-01-13T08:56:53.222Z,6.30
2019-01-13T08:59:23.708Z,6.30
2019-01-13T09:01:55.208Z,6.30
2019-01-13T09:04:25.830Z,6.30
2019-01-13T09:06:56.317Z,6.40
2019-01-13T09:09:27.009Z,6.40
2019-01-13T09:11:57.483Z,6.40
2019-01-13T09:14:28.411Z,6.40
2019-01-13T09:16:59.702Z,6.30
2019-01-13T09:19:30.895Z,6.30
2019-01-13T09:22:01.365Z,6.40
2019-01-13T09:24:31.810Z,6.50
2019-01-13T09:27:02.442Z,6.50
2019-01-13T09:29:42.405Z,6.60
2019-01-13T09:32:09.849Z,6.60
2019-01-13T09:34:40.633Z,6.60
2019-01-13T09:37:11.251Z,6.60
2019-01-13T09:39:41.618Z,6.70
2019-01-13T09:42:12.216Z,6.60
2019-01-13T09:44:43.714Z,6.60
2019-01-13T09:47:16.524Z,6.70
2019-01-13T09:49:49.944Z,6.60
2019-01-13T09:52:19.456Z,6.50
2019-01-13T09:54:50.864Z,6.50
2019-01-13T09:57:21.470Z,6.50
2019-01-13T09:59:52.651Z,6.50
2019-01-13T10:02:23.335Z,6.60
2019-01-13T10:04:53.560Z,6.60
2019-01-13T10:07:23.866Z,6.50
2019-01-13T10:09:54.813Z,6.60
2019-01-13T10:12:25.203Z,6.70
2019-01-13T10:14:55.645Z,6.70
2019-01-13T10:17:25.836Z,6.80
2019-01-13T10:19:56.212Z,6.70
2019-01-13T10:22:26.643Z,6.70
2019-01-13T10:24:57.310Z,6.70
2019-01-13T10:27:27.806Z,6.60
2019-01-13T10:29:58.453Z,6.60
2019-01-13T10:32:29.040Z,6.70
2019-01-13T10:34:59.167Z,6.70
2019-01-13T10:37:29.591Z,6.70
2019-01-13T10:40:00.398Z,6.60
2019-01-13T10:42:30.918Z,6.60
2019-01-13T10:45:01.256Z,6.60
2019-01-13T10:47:32.147Z,6.60
2019-01-13T10:50:02.301Z,6.70
2019-01-13T10:52:32.595Z,6.70
2019-01-13T10:55:02.825Z,6.70
2019-01-13T10:57:33.245Z,6.70
2019-01-13T11:00:04.370Z,6.70
2019-01-13T11:02:35.010Z,6.60
2019-01-13T11:05:05.736Z,6.60
2019-01-13T11:07:35.893Z,6.60
2019-01-13T11:10:07.201Z,6.70
2019-01-13T11:12:37.777Z,6.60
2019-01-13T11:15:08.603Z,6.60
2019-01-13T11:17:39.226Z,6.60
2019-01-13T11:20:18.268Z,6.60
2019-01-13T11:22:48.757Z,6.60
2019-01-13T11:25:19.106Z,6.60
2019-01-13T11:27:50.042Z,6.60
2019-01-13T11:30:21.610Z,6.60
2019-01-13T11:32:52.089Z,6.60
2019-01-13T11:35:22.958Z,6.60
2019-01-13T11:37:53.593Z,6.60
2019-01-13T11:40:25.965Z,6.60
2019-01-13T11:42:56.560Z,6.60
2019-01-13T11:45:27.109Z,6.60
2019-01-13T11:47:57.853Z,6.60
2019-01-13T11:50:28.371Z,6.60
2019-01-13T11:52:58.710Z,6.60
2019-01-13T11:55:28.931Z,6.60
2019-01-13T11:58:01.924Z,6.60
2019-01-13T12:00:35.052Z,6.50
2019-01-13T12:03:06.842Z,6.50
2019-01-13T12:05:37.382Z,6.50
2019-01-13T12:08:07.622Z,6.50
2019-01-13T12:10:38.230Z,6.50
2019-01-13T12:13:08.861Z,6.50
2019-01-13T12:15:39.121Z,6.50
2019-01-13T12:18:09.434Z,6.50
2019-01-13T12:20:39.756Z,6.50
2019-01-13T12:23:10.370Z,6.40
2019-01-13T12:25:42.260Z,6.40
2019-01-13T12:28:13.247Z,6.50
2019-01-13T12:30:43.710Z,6.40
2019-01-13T12:33:14.197Z,6.50
2019-01-13T12:35:44.273Z,6.50
2019-01-13T12:38:15.035Z,6.60
2019-01-13T12:40:45.623Z,6.50
2019-01-13T12:43:16.162Z,6.50
2019-01-13T12:45:46.311Z,6.60
2019-01-13T12:48:17.056Z,6.60
2019-01-13T12:50:48.392Z,6.50
2019-01-13T12:53:22.302Z,6.60
2019-01-13T12:55:52.713Z,6.60
2019-01-13T12:58:23.559Z,6.50
2019-01-13T13:00:53.658Z,6.50
2019-01-13T13:03:31.321Z,6.40
2019-01-13T13:05:56.537Z,6.40
2019-01-13T13:08:26.921Z,6.40
2019-01-13T13:10:57.916Z,6.30
2019-01-13T13:13:28.531Z,6.40
2019-01-13T13:15:58.886Z,6.40
2019-01-13T13:18:30.459Z,6.40
2019-01-13T13:21:00.785Z,6.40
2019-01-13T13:23:30.947Z,6.40
2019-01-13T13:26:01.281Z,6.40
2019-01-13T13:28:32.031Z,6.50
2019-01-13T13:31:05.322Z,6.50
2019-01-13T13:33:38.828Z,6.60
2019-01-13T13:36:09.324Z,6.70
2019-01-13T13:38:39.938Z,6.60
2019-01-13T13:41:10.137Z,6.60
2019-01-13T13:43:39.429Z,6.60
2019-01-13T13:46:09.870Z,6.60
2019-01-13T13:48:40.180Z,6.60
2019-01-13T13:51:11.305Z,6.60
2019-01-13T13:53:41.540Z,6.60
2019-01-13T13:56:12.178Z,6.60
2019-01-13T13:58:42.305Z,6.60
2019-01-13T14:01:12.583Z,6.60
2019-01-13T14:03:45.803Z,6.70
2019-01-13T14:06:15.135Z,6.60
2019-01-13T14:08:45.806Z,6.70
2019-01-13T14:11:16.058Z,6.70
2019-01-13T14:13:46.791Z,6.80
2019-01-13T14:16:17.476Z,6.80
2019-01-13T14:18:50.980Z,6.80
2019-01-13T14:21:21.382Z,6.90
2019-01-13T14:23:55.147Z,6.90
2019-01-13T14:26:25.632Z,7.00
2019-01-13T14:28:56.533Z,6.90
2019-01-13T14:31:30.036Z,7.00
2019-01-13T14:34:01.137Z,6.90
2019-01-13T14:36:32.035Z,7.00
2019-01-13T14:39:07.689Z,7.00
2019-01-13T14:41:41.001Z,7.10
2019-01-13T14:44:12.597Z,7.10
2019-01-13T14:46:45.790Z,7.10
2019-01-13T14:49:17.161Z,7.10
2019-01-13T14:51:50.141Z,7.10
2019-01-13T14:54:21.953Z,7.20
2019-01-13T14:56:52.796Z,7.20
2019-01-13T14:59:23.072Z,7.20
2019-01-13T15:01:54.063Z,7.20
2019-01-13T15:04:24.334Z,7.20
2019-01-13T15:06:56.857Z,7.50
2019-01-13T15:09:30.478Z,7.60
2019-01-13T15:12:01.638Z,7.70
2019-01-13T15:14:34.884Z,7.80
2019-01-13T15:17:06.374Z,7.80
2019-01-13T15:19:42.208Z,7.70
2019-01-13T15:22:15.175Z,7.60
2019-01-13T15:24:46.761Z,7.60
2019-01-13T15:27:17.382Z,7.60
2019-01-13T15:29:52.223Z,7.60
2019-01-13T15:32:25.433Z,7.60
2019-01-13T15:34:56.669Z,7.60
2019-01-13T15:37:28.008Z,7.60
2019-01-13T15:39:58.464Z,7.60
2019-01-13T15:42:29.328Z,7.70
2019-01-13T15:44:59.730Z,7.70
2019-01-13T15:47:30.125Z,7.80
2019-01-13T15:50:01.676Z,7.80
2019-01-13T15:52:32.727Z,7.80
2019-01-13T15:55:03.529Z,7.90
2019-01-13T15:57:34.096Z,7.90
2019-01-13T16:00:05.818Z,7.80
2019-01-13T16:02:38.681Z,7.90
2019-01-13T16:05:09.855Z,7.80
2019-01-13T16:07:40.943Z,7.90
2019-01-13T16:10:14.013Z,7.90
2019-01-13T16:12:44.661Z,7.90
2019-01-13T16:15:15.018Z,7.90
2019-01-13T16:17:45.474Z,8.00
2019-01-13T16:20:24.202Z,8.00
2019-01-13T16:22:54.432Z,8.00
2019-01-13T16:25:25.565Z,8.00
2019-01-13T16:27:56.618Z,8.00
2019-01-13T16:30:27.801Z,8.00
2019-01-13T16:32:59.886Z,8.10
2019-01-13T16:35:31.658Z,8.10
2019-01-13T16:38:01.967Z,8.10
2019-01-13T16:40:33.568Z,8.10
2019-01-13T16:43:04.385Z,8.10
2019-01-13T16:45:34.832Z,8.10
2019-01-13T16:48:05.796Z,8.10
2019-01-13T16:50:36.895Z,8.10
2019-01-13T16:53:08.788Z,8.10
2019-01-13T16:55:39.606Z,8.10
2019-01-13T16:58:10.630Z,8.20
2019-01-13T17:00:40.853Z,8.10
2019-01-13T17:03:11.274Z,8.10
2019-01-13T17:05:41.506Z,8.10
2019-01-13T17:08:11.706Z,8.10
2019-01-13T17:10:42.046Z,8.10
2019-01-13T17:13:12.113Z,8.10
2019-01-13T17:15:42.812Z,8.00
2019-01-13T17:18:13.168Z,8.10
2019-01-13T17:20:43.566Z,8.10
2019-01-13T17:23:13.678Z,8.20
2019-01-13T17:25:43.846Z,8.20
2019-01-13T17:28:14.623Z,8.20
2019-01-13T17:30:44.944Z,8.20
2019-01-13T17:33:16.061Z,8.20
2019-01-13T17:35:47.404Z,8.20
2019-01-13T17:38:18.973Z,8.20
2019-01-13T17:40:50.651Z,8.20
2019-01-13T17:43:21.410Z,8.20
2019-01-13T17:45:51.925Z,8.20
2019-01-13T17:48:23.422Z,8.20
2019-01-13T17:50:54.451Z,8.20
2019-01-13T17:53:24.786Z,8.20
2019-01-13T17:55:55.157Z,8.20
2019-01-13T17:58:25.764Z,8.20
2019-01-13T18:01:25.480Z,8.20
2019-01-13T18:03:56.050Z,8.20
2019-01-13T18:06:26.668Z,8.00
2019-01-13T18:08:58.822Z,8.00
2019-01-13T18:11:29.817Z,7.90
2019-01-13T18:14:04.536Z,7.80
2019-01-13T18:16:34.977Z,7.70
2019-01-13T18:19:05.417Z,7.50
2019-01-13T18:21:36.810Z,7.50
2019-01-13T18:24:06.874Z,7.40
2019-01-13T18:26:37.355Z,7.40
2019-01-13T18:29:07.733Z,7.30
2019-01-13T18:31:38.542Z,7.40
2019-01-13T18:34:08.906Z,7.40
2019-01-13T18:36:39.354Z,7.40
2019-01-13T18:39:09.855Z,7.50
2019-01-13T18:41:39.982Z,7.50
2019-01-13T18:44:11.443Z,7.50
2019-01-13T18:46:41.501Z,7.60
2019-01-13T18:49:11.824Z,7.50
2019-01-13T18:51:42.458Z,7.60
2019-01-13T18:54:13.155Z,7.60
2019-01-13T18:56:44.598Z,7.60
2019-01-13T18:59:15.110Z,7.60
2019-01-13T19:01:45.733Z,7.60
2019-01-13T19:04:18.398Z,7.60
2019-01-13T19:06:48.676Z,7.50
2019-01-13T19:09:19.511Z,7.50
2019-01-13T19:11:52.308Z,7.60
2019-01-13T19:14:30.711Z,7.50
2019-01-13T19:17:07.125Z,7.40
2019-01-13T19:20:10.410Z,7.40
2019-01-13T19:22:42.824Z,7.40
2019-01-13T19:25:20.693Z,7.40
2019-01-13T19:27:50.815Z,7.30
2019-01-13T19:30:21.257Z,7.20
2019-01-13T19:32:51.872Z,7.20
2019-01-13T19:35:23.227Z,7.20
2019-01-13T19:37:53.908Z,7.20
2019-01-13T19:40:24.284Z,7.20
2019-01-13T19:42:56.048Z,7.20
2019-01-13T19:45:26.371Z,7.20
2019-01-13T19:47:58.615Z,7.20
2019-01-13T19:50:29.257Z,7.20
2019-01-13T19:53:00.493Z,7.20
2019-01-13T19:55:30.821Z,7.20
2019-01-13T19:58:01.448Z,7.20
2019-01-13T20:00:36.000Z,7.20
2019-01-13T20:03:07.552Z,7.20
2019-01-13T20:05:37.789Z,7.10
2019-01-13T20:08:08.181Z,7.00
2019-01-13T20:10:44.417Z,6.90
2019-01-13T20:13:15.348Z,6.90
2019-01-13T20:15:47.536Z,6.90
2019-01-13T20:18:18.245Z,6.90
2019-01-13T20:20:48.912Z,6.90
2019-01-13T20:23:19.488Z,6.90
2019-01-13T20:25:50.052Z,6.90
2019-01-13T20:28:20.188Z,6.90
2019-01-13T20:30:50.821Z,6.80
2019-01-13T20:33:21.186Z,6.70
2019-01-13T20:35:51.384Z,6.70
2019-01-13T20:38:21.561Z,6.60
2019-01-13T20:40:52.971Z,6.60
2019-01-13T20:43:23.659Z,6.50
2019-01-13T20:45:56.250Z,6.50
2019-01-13T20:48:28.999Z,6.50
2019-01-13T20:50:59.357Z,6.50
2019-01-13T20:53:30.369Z,6.50
2019-01-13T20:56:00.816Z,6.60
2019-01-13T20:58:31.701Z,6.60
2019-01-13T21:01:04.725Z,6.60
2019-01-13T21:03:37.421Z,6.60
2019-01-13T21:06:07.764Z,6.60
2019-01-13T21:08:38.590Z,6.60
2019-01-13T21:11:08.969Z,6.60
2019-01-13T21:13:41.337Z,6.60
2019-01-13T21:16:11.921Z,6.60
2019-01-13T21:18:44.394Z,6.60
2019-01-13T21:21:15.004Z,6.50
2019-01-13T21:23:45.675Z,6.40
2019-01-13T21:26:16.130Z,6.40
2019-01-13T21:28:48.081Z,6.30
2019-01-13T21:31:18.752Z,6.20
2019-01-13T21:33:50.436Z,6.10
2019-01-13T21:36:21.086Z,6.10
2019-01-13T21:38:51.405Z,6.10
2019-01-13T21:41:22.430Z,6.10
2019-01-13T21:43:53.114Z,6.10
2019-01-13T21:46:23.428Z,6.10
2019-01-13T21:48:58.190Z,6.10
2019-01-13T21:51:28.635Z,6.10
2019-01-13T21:53:59.602Z,6.20
2019-01-13T21:56:29.942Z,6.20
2019-01-13T21:59:00.071Z,6.20
2019-01-13T22:01:35.397Z,6.20
2019-01-13T22:04:03.117Z,6.20
2019-01-13T22:06:33.449Z,6.20
2019-01-13T22:09:06.948Z,6.30
2019-01-13T22:11:38.402Z,6.30
2019-01-13T22:14:08.518Z,6.40
2019-01-13T22:16:43.057Z,6.40
2019-01-13T22:19:13.493Z,6.40
2019-01-13T22:21:43.793Z,6.40
2019-01-13T22:24:14.870Z,6.30
2019-01-13T22:26:45.837Z,6.40
2019-01-13T22:29:18.104Z,6.40
2019-01-13T22:31:48.773Z,6.50
2019-01-13T22:34:20.837Z,6.50
2019-01-13T22:36:51.490Z,6.50
2019-01-13T22:39:22.126Z,6.50
2019-01-13T22:41:52.592Z,6.50
2019-01-13T22:44:22.806Z,6.60
2019-01-13T22:46:53.384Z,6.50
2019-01-13T22:49:23.901Z,6.40
2019-01-13T22:51:54.042Z,6.20
2019-01-13T22:54:24.903Z,6.20
2019-01-13T22:56:55.449Z,6.10
2019-01-13T22:59:26.117Z,6.10
2019-01-13T23:01:56.486Z,6.10
2019-01-13T23:04:27.266Z,6.00
2019-01-13T23:06:58.817Z,5.90
2019-01-13T23:11:52.336Z,5.90
2019-01-13T23:14:22.480Z,5.50
2019-01-13T23:16:52.616Z,5.30
2019-01-13T23:19:22.930Z,5.10
2019-01-13T23:21:53.316Z,5.10
2019-01-13T23:24:23.657Z,5.00
2019-01-13T23:26:54.208Z,4.90
2019-01-13T23:29:24.322Z,5.00
2019-01-13T23:31:54.764Z,5.00
2019-01-13T23:36:50.422Z,5.00
2019-01-13T23:39:20.631Z,5.20
2019-01-13T23:41:50.961Z,5.30
2019-01-13T23:44:21.333Z,5.30
2019-01-13T23:46:51.444Z,5.40
2019-01-13T23:49:22.077Z,5.40
2019-01-13T23:51:52.353Z,5.50
2019-01-13T23:54:23.167Z,5.40
2019-01-13T23:56:53.637Z,5.50
2019-01-13T23:59:24.412Z,5.50
